Decoded Metar for LEVX (VIGO in SPAIN) (IATA:VGO) | Meteo·Mobile Aviation Weather
aviador You're here:

LEVX Decoded Metar

VIGO in SPAIN
Report Time2019-10-19 21:30:00
UTC Time2019-10-19 21:49:59
Flight Rules vfr VFR
Wind020° at 04 kt
W.Decomp.*RWY 02: 4.0 kt HW 0.2 kt RCW
Visibility9999 m
Phenomena:N/A
Clouds:Scattered 021 Hf
CeilingNone
Temp10°C (ISA -3)
Dew Point10°C (100% RH)
AAT8.6°C
QNH1007 hPa
Density Alt814 ft
Elevation840 ft
Report Wrong Elevation
Raw Report
LEVX 192130Z 02004KT 340V070 9999 SCT021 10/10 Q1007 NOSIG=

Extra information for LEVX:More info

Metar Taf Metar & Taf Last 4 Metars F.Rules Stats Wind Profile Meteogram Temp Stats Airport Information Weather charts Add Link Nearby VenuesMetar ALERT Operation Metar Decoded Social comments